createdAt,value
2018-05-04T00:00:38.425Z,26.00
2018-05-04T00:03:05.913Z,26.00
2018-05-04T00:05:33.378Z,26.10
2018-05-04T00:08:00.849Z,26.10
2018-05-04T00:10:29.081Z,26.60
2018-05-04T00:12:56.567Z,26.20
2018-05-04T00:15:24.044Z,26.20
2018-05-04T00:17:51.548Z,26.30
2018-05-04T00:20:19.023Z,26.30
2018-05-04T00:22:46.496Z,26.30
2018-05-04T00:25:13.976Z,26.80
2018-05-04T00:27:42.236Z,26.40
2018-05-04T00:30:09.720Z,26.40
2018-05-04T00:32:37.199Z,26.40
2018-05-04T00:35:04.802Z,26.30
2018-05-04T00:37:32.293Z,26.50
2018-05-04T00:39:59.754Z,26.60
2018-05-04T00:42:27.239Z,26.60
2018-05-04T00:44:54.766Z,26.60
2018-05-04T00:47:23.032Z,26.80
2018-05-04T00:49:50.512Z,26.70
2018-05-04T00:52:17.988Z,26.70
2018-05-04T00:54:45.462Z,27.30
2018-05-04T00:57:13.735Z,26.80
2018-05-04T00:59:41.200Z,26.90
2018-05-04T01:02:08.674Z,26.90
2018-05-04T01:04:36.153Z,27.00
2018-05-04T01:07:03.620Z,26.90
2018-05-04T01:09:31.101Z,26.90
2018-05-04T01:11:58.560Z,27.00
2018-05-04T01:14:26.044Z,27.00
2018-05-04T01:16:54.304Z,27.00
2018-05-04T01:19:21.800Z,27.10
2018-05-04T01:21:50.061Z,27.30
2018-05-04T01:24:17.559Z,27.20
2018-05-04T01:26:45.047Z,27.20
2018-05-04T01:29:12.554Z,27.20
2018-05-04T01:31:40.077Z,27.20
2018-05-04T01:34:08.339Z,27.30
2018-05-04T01:36:35.817Z,27.40
2018-05-04T01:39:03.320Z,27.30
2018-05-04T01:41:31.544Z,27.50
2018-05-04T01:43:59.100Z,27.50
2018-05-04T01:46:26.574Z,27.40
2018-05-04T01:48:54.066Z,27.50
2018-05-04T01:51:21.555Z,27.50
2018-05-04T01:53:49.057Z,27.50
2018-05-04T01:56:16.529Z,27.50
2018-05-04T01:58:44.793Z,27.60
2018-05-04T02:01:12.256Z,27.70
2018-05-04T02:03:39.831Z,27.60
2018-05-04T02:06:08.012Z,27.70
2018-05-04T02:08:36.248Z,27.70
2018-05-04T02:11:04.491Z,27.70
2018-05-04T02:13:31.970Z,27.80
2018-05-04T02:15:59.462Z,27.80
2018-05-04T02:18:26.948Z,27.80
2018-05-04T02:20:55.184Z,27.90
2018-05-04T02:23:22.700Z,27.90
2018-05-04T02:25:50.187Z,27.90
2018-05-04T02:28:17.700Z,27.90
2018-05-04T02:30:45.173Z,27.90
2018-05-04T02:33:12.662Z,27.90
2018-05-04T02:35:40.140Z,28.00
2018-05-04T02:38:07.704Z,28.00
2018-05-04T02:40:35.187Z,28.00
2018-05-04T02:43:02.689Z,28.00
2018-05-04T02:45:30.165Z,28.10
2018-05-04T02:47:58.411Z,28.20
2018-05-04T02:50:25.891Z,28.70
2018-05-04T02:52:53.359Z,28.10
2018-05-04T02:55:20.892Z,28.20
2018-05-04T02:57:48.348Z,28.20
2018-05-04T03:00:15.839Z,28.30
2018-05-04T03:02:43.309Z,28.30
2018-05-04T03:05:10.796Z,28.30
2018-05-04T03:07:38.251Z,28.40
2018-05-04T03:10:05.736Z,28.40
2018-05-04T03:12:33.202Z,28.40
2018-05-04T03:15:00.696Z,28.40
2018-05-04T03:17:28.185Z,28.50
2018-05-04T03:19:56.467Z,28.50
2018-05-04T03:22:23.931Z,28.60
2018-05-04T03:24:51.447Z,28.50
2018-05-04T03:27:18.912Z,28.60
2018-05-04T03:29:46.411Z,28.60
2018-05-04T03:32:13.888Z,29.10
2018-05-04T03:34:41.379Z,28.60
2018-05-04T03:37:08.857Z,28.70
2018-05-04T03:39:36.337Z,28.70
2018-05-04T03:42:03.802Z,28.70
2018-05-04T03:44:31.292Z,28.80
2018-05-04T03:46:59.538Z,28.80
2018-05-04T03:49:27.038Z,28.80
2018-05-04T03:51:54.529Z,28.80
2018-05-04T03:54:22.841Z,28.90
2018-05-04T03:56:50.327Z,28.90
2018-05-04T04:02:34.540Z,29.50
2018-05-04T04:05:01.965Z,28.90
2018-05-04T04:07:30.207Z,29.00
2018-05-04T04:09:57.746Z,29.00
2018-05-04T04:12:25.257Z,29.00
2018-05-04T04:14:52.780Z,29.10
2018-05-04T04:17:20.265Z,29.00
2018-05-04T04:19:47.753Z,29.10
2018-05-04T04:22:15.233Z,29.20
2018-05-04T04:24:42.821Z,29.20
2018-05-04T04:27:10.681Z,29.10
2018-05-04T04:29:38.182Z,29.10
2018-05-04T04:32:05.662Z,29.20
2018-05-04T04:34:33.914Z,29.30
2018-05-04T04:37:01.397Z,29.30
2018-05-04T04:39:28.968Z,29.30
2018-05-04T04:41:56.437Z,29.20
2018-05-04T04:44:24.067Z,29.40
2018-05-04T04:46:51.612Z,29.40
2018-05-04T04:49:19.898Z,29.50
2018-05-04T04:51:48.128Z,29.50
2018-05-04T04:54:15.645Z,29.50
2018-05-04T04:56:43.111Z,29.50
2018-05-04T04:59:10.734Z,29.50
2018-05-04T05:01:38.207Z,29.50
2018-05-04T05:04:05.689Z,29.60
2018-05-04T05:06:33.180Z,29.60
2018-05-04T05:09:00.656Z,29.60
2018-05-04T05:11:28.160Z,29.60
2018-05-04T05:13:56.416Z,29.80
2018-05-04T05:16:23.950Z,29.80
2018-05-04T05:18:51.453Z,29.80
2018-05-04T05:21:18.992Z,29.80
2018-05-04T05:23:46.564Z,29.80
2018-05-04T05:26:13.975Z,29.80
2018-05-04T05:28:41.461Z,29.80
2018-05-04T05:31:08.943Z,29.90
2018-05-04T05:33:36.416Z,29.90
2018-05-04T05:36:03.968Z,29.90
2018-05-04T05:38:31.454Z,30.00
2018-05-04T05:40:58.950Z,30.00
2018-05-04T05:43:27.188Z,30.00
2018-05-04T05:45:54.745Z,30.00
2018-05-04T05:48:22.225Z,30.00
2018-05-04T05:50:49.746Z,30.10
2018-05-04T05:53:18.006Z,30.10
2018-05-04T05:55:45.488Z,30.20
2018-05-04T05:58:13.021Z,30.20
2018-05-04T06:00:40.521Z,30.20
2018-05-04T06:03:08.001Z,30.30
2018-05-04T06:05:36.261Z,30.50
2018-05-04T06:08:03.755Z,31.00
2018-05-04T06:10:32.012Z,30.40
2018-05-04T06:12:59.496Z,30.40
2018-05-04T06:15:27.002Z,30.50
2018-05-04T06:17:55.290Z,30.60
2018-05-04T06:20:22.784Z,30.60
2018-05-04T06:22:50.271Z,30.60
2018-05-04T06:25:17.761Z,30.60
2018-05-04T06:27:45.232Z,30.60
2018-05-04T06:30:13.325Z,30.60
2018-05-04T06:32:40.787Z,30.50
2018-05-04T06:35:08.283Z,30.50
2018-05-04T06:37:35.856Z,30.50
2018-05-04T06:40:08.324Z,30.50
2018-05-04T06:42:35.793Z,30.50
2018-05-04T06:45:03.289Z,30.50
2018-05-04T06:47:30.756Z,30.60
2018-05-04T06:49:58.338Z,30.60
2018-05-04T06:52:26.592Z,30.70
2018-05-04T06:54:54.114Z,30.70
2018-05-04T06:57:22.493Z,30.90
2018-05-04T06:59:49.993Z,30.90
2018-05-04T07:02:17.484Z,30.90
2018-05-04T07:04:44.965Z,30.80
2018-05-04T07:07:12.452Z,30.90
2018-05-04T07:09:40.684Z,31.20
2018-05-04T07:12:08.935Z,31.20
2018-05-04T07:14:36.410Z,31.20
2018-05-04T07:17:03.905Z,31.30
2018-05-04T07:19:31.376Z,31.30
2018-05-04T07:21:59.671Z,31.40
2018-05-04T07:24:27.123Z,31.40
2018-05-04T07:26:54.793Z,31.40
2018-05-04T07:29:22.284Z,31.30
2018-05-04T07:31:50.570Z,31.30
2018-05-04T07:34:18.227Z,31.20
2018-05-04T07:36:45.713Z,31.00
2018-05-04T07:39:13.220Z,31.00
2018-05-04T07:41:40.712Z,31.10
2018-05-04T07:44:08.193Z,31.40
2018-05-04T07:46:35.688Z,31.80
2018-05-04T07:49:03.184Z,32.10
2018-05-04T07:51:31.432Z,32.60
2018-05-04T07:53:58.892Z,32.60
2018-05-04T07:56:36.212Z,32.70
2018-05-04T07:59:03.693Z,32.80
2018-05-04T08:01:31.181Z,32.80
2018-05-04T08:03:59.424Z,32.50
2018-05-04T08:06:26.929Z,32.50
2018-05-04T08:08:54.458Z,32.40
2018-05-04T08:11:21.953Z,32.20
2018-05-04T08:13:49.425Z,32.00
2018-05-04T08:16:16.912Z,32.00
2018-05-04T08:18:44.382Z,31.90
2018-05-04T08:21:11.887Z,31.70
2018-05-04T08:23:39.346Z,31.90
2018-05-04T08:26:07.608Z,31.20
2018-05-04T08:28:35.087Z,31.10
2018-05-04T08:31:02.576Z,30.70
2018-05-04T08:33:30.812Z,30.00
2018-05-04T08:35:58.287Z,30.00
2018-05-04T08:38:25.755Z,29.80
2018-05-04T08:40:53.337Z,29.60
2018-05-04T08:43:21.513Z,29.10
2018-05-04T08:45:49.012Z,29.00
2018-05-04T08:48:16.549Z,28.80
2018-05-04T08:50:44.042Z,28.70
2018-05-04T08:53:11.521Z,29.00
2018-05-04T08:55:39.019Z,28.70
2018-05-04T08:58:07.244Z,27.90
2018-05-04T09:00:34.726Z,27.80
2018-05-04T09:03:02.197Z,27.50
2018-05-04T09:05:29.888Z,27.40
2018-05-04T09:07:57.268Z,27.20
2018-05-04T09:10:24.779Z,27.20
2018-05-04T09:12:52.320Z,27.50
2018-05-04T09:15:20.258Z,27.40
2018-05-04T09:17:47.750Z,27.30
2018-05-04T09:20:15.225Z,27.10
2018-05-04T09:22:42.715Z,26.90
2018-05-04T09:25:10.190Z,27.00
2018-05-04T09:27:37.696Z,27.00
2018-05-04T09:30:05.186Z,26.90
2018-05-04T09:32:32.681Z,26.70
2018-05-04T09:35:00.152Z,26.50
2018-05-04T09:37:27.632Z,26.20
2018-05-04T09:39:55.171Z,25.90
2018-05-04T09:42:22.681Z,25.60
2018-05-04T09:44:50.159Z,25.60
2018-05-04T09:47:18.424Z,25.70
2018-05-04T09:49:45.915Z,25.60
2018-05-04T09:52:13.448Z,25.90
2018-05-04T09:54:40.929Z,26.10
2018-05-04T09:57:08.422Z,26.30
2018-05-04T09:59:35.903Z,26.40
2018-05-04T10:02:03.390Z,26.60
2018-05-04T10:04:30.860Z,26.70
2018-05-04T10:06:59.144Z,26.60
2018-05-04T10:09:27.381Z,26.40
2018-05-04T10:11:54.900Z,26.30
2018-05-04T10:14:22.495Z,26.10
2018-05-04T10:16:50.839Z,25.70
2018-05-04T10:19:18.318Z,25.60
2018-05-04T10:21:45.817Z,25.40
2018-05-04T10:24:14.102Z,24.90
2018-05-04T10:26:42.379Z,24.60
2018-05-04T10:29:10.632Z,24.40
2018-05-04T10:31:38.131Z,24.10
2018-05-04T10:34:05.620Z,24.00
2018-05-04T10:36:33.877Z,24.10
2018-05-04T10:39:01.439Z,23.50
2018-05-04T10:41:28.937Z,23.30
2018-05-04T10:43:56.408Z,23.10
2018-05-04T10:46:23.915Z,22.70
2018-05-04T10:48:51.441Z,22.40
2018-05-04T10:51:19.080Z,22.00
2018-05-04T10:53:46.605Z,21.50
2018-05-04T10:56:14.089Z,21.30
2018-05-04T10:58:42.357Z,21.00
2018-05-04T11:01:09.859Z,20.90
2018-05-04T11:03:38.154Z,20.50
2018-05-04T11:06:05.660Z,20.50
2018-05-04T11:08:33.133Z,20.50
2018-05-04T11:11:00.622Z,20.50
2018-05-04T11:13:28.102Z,20.30
2018-05-04T11:15:55.584Z,20.20
2018-05-04T11:18:23.079Z,20.10
2018-05-04T11:20:50.613Z,20.00
2018-05-04T11:23:18.138Z,19.80
2018-05-04T11:25:45.645Z,19.80
2018-05-04T11:28:13.132Z,19.60
2018-05-04T11:30:40.597Z,19.40
2018-05-04T11:33:08.098Z,19.20
2018-05-04T11:35:35.809Z,18.90
2018-05-04T11:38:03.297Z,18.70
2018-05-04T11:40:30.769Z,18.50
2018-05-04T11:42:58.280Z,18.40
2018-05-04T11:45:27.715Z,18.10
2018-05-04T11:47:55.969Z,18.10
2018-05-04T11:50:23.437Z,18.10
2018-05-04T11:52:50.961Z,18.20
2018-05-04T11:55:18.566Z,18.20
2018-05-04T11:57:46.778Z,18.00
2018-05-04T12:00:14.240Z,17.90
2018-05-04T12:02:41.736Z,17.80
2018-05-04T12:05:10.007Z,17.60
2018-05-04T12:07:37.503Z,17.60
2018-05-04T12:10:05.736Z,17.40
2018-05-04T12:12:33.252Z,17.30
2018-05-04T12:15:00.866Z,17.30
2018-05-04T12:17:28.368Z,17.10
2018-05-04T12:19:55.867Z,17.00
2018-05-04T12:22:24.717Z,16.90
2018-05-04T12:24:52.210Z,17.10
2018-05-04T12:27:19.856Z,16.80
2018-05-04T12:29:47.337Z,16.70
2018-05-04T12:32:14.825Z,16.50
2018-05-04T12:34:42.301Z,16.50
2018-05-04T12:37:09.846Z,16.60
2018-05-04T12:39:38.076Z,16.40
2018-05-04T12:42:05.578Z,16.30
2018-05-04T12:44:33.816Z,16.40
2018-05-04T12:47:01.436Z,15.90
2018-05-04T12:49:28.852Z,15.90
2018-05-04T12:51:56.356Z,15.90
2018-05-04T12:54:23.852Z,16.00
2018-05-04T12:56:52.118Z,15.90
2018-05-04T12:59:19.580Z,15.80
2018-05-04T13:01:47.090Z,15.80
2018-05-04T13:04:14.562Z,15.60
2018-05-04T13:06:42.048Z,15.30
2018-05-04T13:09:09.534Z,15.10
2018-05-04T13:11:37.033Z,14.90
2018-05-04T13:14:04.719Z,14.70
2018-05-04T13:16:32.217Z,14.70
2018-05-04T13:19:00.569Z,14.50
2018-05-04T13:21:28.060Z,14.50
2018-05-04T13:23:55.579Z,14.40
2018-05-04T13:26:23.140Z,14.40
2018-05-04T13:28:50.649Z,14.40
2018-05-04T13:31:18.131Z,14.50
2018-05-04T13:33:45.636Z,14.30
2018-05-04T13:36:13.881Z,14.00
2018-05-04T13:38:41.403Z,13.90
2018-05-04T13:41:09.632Z,14.00
2018-05-04T13:43:37.120Z,13.90
2018-05-04T13:46:04.595Z,13.90
2018-05-04T13:48:32.090Z,13.90
2018-05-04T13:50:59.555Z,13.70
2018-05-04T13:53:27.059Z,13.70
2018-05-04T13:55:54.560Z,13.60
2018-05-04T13:58:22.226Z,13.60
2018-05-04T14:00:49.719Z,13.50
2018-05-04T14:03:17.240Z,13.40
2018-05-04T14:05:44.726Z,13.20
2018-05-04T14:08:12.249Z,13.00
2018-05-04T14:10:39.716Z,12.90
2018-05-04T14:13:08.711Z,12.80
2018-05-04T14:15:36.198Z,12.60
2018-05-04T14:18:04.472Z,12.80
2018-05-04T14:20:31.944Z,12.80
2018-05-04T14:22:59.496Z,12.90
2018-05-04T14:25:27.052Z,13.00
2018-05-04T14:27:54.576Z,12.90
2018-05-04T14:30:22.214Z,12.90
2018-05-04T14:32:49.722Z,12.80
2018-05-04T14:35:17.197Z,13.10
2018-05-04T14:37:44.689Z,12.50
2018-05-04T14:40:12.923Z,12.10
2018-05-04T14:42:40.422Z,12.00
2018-05-04T14:45:07.915Z,12.10
2018-05-04T14:47:36.202Z,12.20
2018-05-04T14:50:04.429Z,12.20
2018-05-04T14:52:31.940Z,12.10
2018-05-04T14:54:59.434Z,12.00
2018-05-04T14:57:27.705Z,11.90
2018-05-04T14:59:55.218Z,11.80
2018-05-04T15:02:23.600Z,11.80
2018-05-04T15:04:51.844Z,11.90
2018-05-04T15:07:20.100Z,11.90
2018-05-04T15:09:47.609Z,12.20
2018-05-04T15:12:15.095Z,12.00
2018-05-04T15:14:42.573Z,12.10
2018-05-04T15:17:10.831Z,12.10
2018-05-04T15:19:38.329Z,12.00
2018-05-04T15:22:05.832Z,12.10
2018-05-04T15:24:33.305Z,12.10
2018-05-04T15:27:00.815Z,12.10
2018-05-04T15:29:28.297Z,12.10
2018-05-04T15:31:57.605Z,12.10
2018-05-04T15:34:25.206Z,12.00
2018-05-04T15:36:52.675Z,12.10
2018-05-04T15:39:20.950Z,12.30
2018-05-04T15:41:49.209Z,12.40
2018-05-04T15:44:16.736Z,12.30
2018-05-04T15:46:44.969Z,12.30
2018-05-04T15:49:18.151Z,12.20
2018-05-04T15:51:51.297Z,12.30
2018-05-04T15:54:19.561Z,12.50
2018-05-04T15:56:47.029Z,12.40
2018-05-04T15:59:14.518Z,12.50
2018-05-04T16:01:41.991Z,12.50
2018-05-04T16:04:09.485Z,12.50
2018-05-04T16:06:36.963Z,12.40
2018-05-04T16:09:05.289Z,12.40
2018-05-04T16:11:32.771Z,12.40
2018-05-04T16:14:00.279Z,12.40
2018-05-04T16:16:27.752Z,12.40
2018-05-04T16:18:55.252Z,12.40
2018-05-04T16:21:23.496Z,12.50
2018-05-04T16:23:50.991Z,12.50
2018-05-04T16:26:19.239Z,12.30
2018-05-04T16:28:46.745Z,12.60
2018-05-04T16:31:14.217Z,12.70
2018-05-04T16:33:41.702Z,12.80
2018-05-04T16:36:09.947Z,13.00
2018-05-04T16:38:37.441Z,13.00
2018-05-04T16:41:04.908Z,13.20
2018-05-04T16:43:32.405Z,13.30
2018-05-04T16:45:59.872Z,13.50
2018-05-04T16:48:33.169Z,14.30
2018-05-04T16:51:00.636Z,13.90
2018-05-04T16:53:28.135Z,14.10
2018-05-04T16:55:56.404Z,14.60
2018-05-04T16:58:23.904Z,14.50
2018-05-04T17:00:52.169Z,14.90
2018-05-04T17:03:20.532Z,15.10
2018-05-04T17:05:48.009Z,15.10
2018-05-04T17:08:15.494Z,15.30
2018-05-04T17:10:42.964Z,15.40
2018-05-04T17:13:10.451Z,15.50
2018-05-04T17:15:38.683Z,16.10
2018-05-04T17:18:06.170Z,15.90
2018-05-04T17:20:33.640Z,16.10
2018-05-04T17:23:01.125Z,16.20
2018-05-04T17:25:28.612Z,16.30
2018-05-04T17:27:56.144Z,16.40
2018-05-04T17:30:23.633Z,16.50
2018-05-04T17:32:51.120Z,16.60
2018-05-04T17:35:18.611Z,16.80
2018-05-04T17:37:46.884Z,17.00
2018-05-04T17:40:14.387Z,17.00
2018-05-04T17:42:42.632Z,17.20
2018-05-04T17:45:10.106Z,17.20
2018-05-04T17:47:37.595Z,17.30
2018-05-04T17:50:05.065Z,17.40
2018-05-04T17:52:32.538Z,17.50
2018-05-04T17:55:00.035Z,17.60
2018-05-04T17:57:27.513Z,17.60
2018-05-04T17:59:55.016Z,17.80
2018-05-04T18:02:22.487Z,17.90
2018-05-04T18:04:49.979Z,18.00
2018-05-04T18:07:17.470Z,18.10
2018-05-04T18:09:44.956Z,18.20
2018-05-04T18:12:13.193Z,18.50
2018-05-04T18:14:40.679Z,18.50
2018-05-04T18:17:08.164Z,18.60
2018-05-04T18:19:35.653Z,18.60
2018-05-04T18:22:03.895Z,18.80
2018-05-04T18:24:31.382Z,18.80
2018-05-04T18:26:58.836Z,18.90
2018-05-04T18:29:26.333Z,19.00
2018-05-04T18:31:53.948Z,19.10
2018-05-04T18:34:21.456Z,19.20
2018-05-04T18:36:49.037Z,19.30
2018-05-04T18:39:16.531Z,19.40
2018-05-04T18:41:44.015Z,19.50
2018-05-04T18:44:12.277Z,19.80
2018-05-04T18:46:39.808Z,19.80
2018-05-04T18:49:07.283Z,19.80
2018-05-04T18:51:34.746Z,20.00
2018-05-04T18:54:02.258Z,20.10
2018-05-04T18:56:29.736Z,20.20
2018-05-04T18:58:57.263Z,20.20
2018-05-04T19:01:24.795Z,20.30
2018-05-04T19:03:53.122Z,21.00
2018-05-04T19:06:20.616Z,20.50
2018-05-04T19:08:48.876Z,20.60
2018-05-04T19:11:16.363Z,20.70
2018-05-04T19:13:44.424Z,20.70
2018-05-04T19:16:11.966Z,20.80
2018-05-04T19:18:39.404Z,20.80
2018-05-04T19:21:06.920Z,20.90
2018-05-04T19:23:35.286Z,21.10
2018-05-04T19:26:03.625Z,21.20
2018-05-04T19:28:31.127Z,21.70
2018-05-04T19:30:58.694Z,21.20
2018-05-04T19:33:26.190Z,21.30
2018-05-04T19:35:53.704Z,21.40
2018-05-04T19:38:21.216Z,21.50
2018-05-04T19:40:48.687Z,21.50
2018-05-04T19:43:16.196Z,21.60
2018-05-04T19:45:44.425Z,21.80
2018-05-04T19:48:11.929Z,21.80
2018-05-04T19:50:39.412Z,21.80
2018-05-04T19:53:07.858Z,21.90
2018-05-04T19:55:35.347Z,22.00
2018-05-04T19:58:02.819Z,22.00
2018-05-04T20:00:30.574Z,22.00
2018-05-04T20:02:58.020Z,22.10
2018-05-04T20:05:25.547Z,22.20
2018-05-04T20:07:53.045Z,22.20
2018-05-04T20:10:21.387Z,22.40
2018-05-04T20:12:48.809Z,22.50
2018-05-04T20:15:16.299Z,22.40
2018-05-04T20:17:44.543Z,22.60
2018-05-04T20:20:12.041Z,22.60
2018-05-04T20:22:39.562Z,22.60
2018-05-04T20:25:07.056Z,22.70
2018-05-04T20:27:34.528Z,22.70
2018-05-04T20:30:02.021Z,22.80
2018-05-04T20:32:29.505Z,22.90
2018-05-04T20:34:57.024Z,22.90
2018-05-04T20:37:24.506Z,22.90
2018-05-04T20:39:52.037Z,23.00
2018-05-04T20:42:19.678Z,23.10
2018-05-04T20:44:47.160Z,23.10
2018-05-04T20:47:15.517Z,23.50
2018-05-04T20:49:43.936Z,23.70
2018-05-04T20:52:12.242Z,23.30
2018-05-04T20:54:40.590Z,23.40
2018-05-04T20:57:08.059Z,23.50
2018-05-04T20:59:35.545Z,23.40
2018-05-04T21:02:03.017Z,23.50
2018-05-04T21:04:30.556Z,23.50
2018-05-04T21:06:58.031Z,23.60
2018-05-04T21:09:25.541Z,23.60
2018-05-04T21:11:53.809Z,23.70
2018-05-04T21:14:21.327Z,23.80
2018-05-04T21:16:49.568Z,23.80
2018-05-04T21:19:17.833Z,23.90
2018-05-04T21:21:45.296Z,24.00
2018-05-04T21:24:12.786Z,23.90
2018-05-04T21:26:40.264Z,24.00
2018-05-04T21:29:07.741Z,24.00
2018-05-04T21:31:35.214Z,24.10
2018-05-04T21:34:02.742Z,24.10
2018-05-04T21:36:30.204Z,24.20
2018-05-04T21:38:58.568Z,24.30
2018-05-04T21:41:26.010Z,24.30
2018-05-04T21:43:53.580Z,24.30
2018-05-04T21:46:21.247Z,24.30
2018-05-04T21:48:48.737Z,24.40
2018-05-04T21:51:16.213Z,24.90
2018-05-04T21:53:45.747Z,24.50
2018-05-04T21:56:13.245Z,24.50
2018-05-04T21:58:41.503Z,24.60
2018-05-04T22:01:08.978Z,24.60
2018-05-04T22:03:36.459Z,24.60
2018-05-04T22:06:03.964Z,24.60
2018-05-04T22:08:31.441Z,24.80
2018-05-04T22:10:58.964Z,24.70
2018-05-04T22:13:27.392Z,24.80
2018-05-04T22:15:55.760Z,24.90
2018-05-04T22:18:23.250Z,25.00
2018-05-04T22:20:51.505Z,25.00
2018-05-04T22:23:18.977Z,25.10
2018-05-04T22:25:46.461Z,25.00
2018-05-04T22:28:14.710Z,25.10
2018-05-04T22:30:42.222Z,25.10
2018-05-04T22:33:09.693Z,25.10
2018-05-04T22:35:37.188Z,25.20
2018-05-04T22:38:05.456Z,25.30
2018-05-04T22:40:33.012Z,25.30
2018-05-04T22:43:00.609Z,25.30
2018-05-04T22:45:28.863Z,25.40
2018-05-04T22:47:56.355Z,25.40
2018-05-04T22:50:23.862Z,25.40
2018-05-04T22:52:51.352Z,25.50
2018-05-04T22:55:18.849Z,25.50
2018-05-04T22:57:46.311Z,25.50
2018-05-04T23:00:14.673Z,25.60
2018-05-04T23:02:42.139Z,25.60
2018-05-04T23:05:09.632Z,25.70
2018-05-04T23:07:37.121Z,25.70
2018-05-04T23:10:04.604Z,25.80
2018-05-04T23:12:32.891Z,25.80
2018-05-04T23:15:00.529Z,25.90
2018-05-04T23:17:28.769Z,25.90
2018-05-04T23:19:56.297Z,25.90
2018-05-04T23:22:28.777Z,26.00
2018-05-04T23:24:56.271Z,26.00
2018-05-04T23:27:23.755Z,26.10
2018-05-04T23:29:51.247Z,26.10
2018-05-04T23:32:18.723Z,26.20
2018-05-04T23:34:46.253Z,26.20
2018-05-04T23:37:13.723Z,26.60
2018-05-04T23:39:41.207Z,26.20
2018-05-04T23:42:09.450Z,26.30
2018-05-04T23:44:36.940Z,26.40
2018-05-04T23:47:04.408Z,26.30
2018-05-04T23:49:31.900Z,26.40
2018-05-04T23:51:59.366Z,26.50
2018-05-04T23:54:26.932Z,26.50
2018-05-04T23:56:54.401Z,26.60
2018-05-04T23:59:21.900Z,26.60
